Time;durP1;ratioP1;P1;durP2;ratioP2;P2;SDS_P1;SDS_P2;PMS_P1;PMS_P2;Temp;Humidity;BMP_temperature;BMP_pressure;BME280_temperature;BME280_humidity;BME280_pressure;Samples;Min_cycle;Max_cycle;Signal;HPM_P1;HPM_P2
2020/12/04 00:01:36;;;;;;;5.22;3.05;;;7.10;90.60;;;;;;4993488;28;20497;-75
2020/12/04 00:04:02;;;;;;;4.15;2.75;;;7.10;90.60;;;;;;5015122;28;20048;-74
2020/12/04 00:06:27;;;;;;;6.63;3.40;;;7.10;90.80;;;;;;5012376;28;20091;-75
2020/12/04 00:08:53;;;;;;;6.45;2.92;;;7.10;90.70;;;;;;5028620;28;20043;-75
2020/12/04 00:11:20;;;;;;;4.80;3.15;;;7.10;90.70;;;;;;4986475;28;20038;-74
2020/12/04 00:13:45;;;;;;;6.32;3.33;;;7.10;90.60;;;;;;4988782;28;20036;-74
2020/12/04 00:16:11;;;;;;;5.07;3.03;;;7.10;90.70;;;;;;4983065;28;20039;-76
2020/12/04 00:18:37;;;;;;;5.43;3.22;;;7.10;90.80;;;;;;5000575;28;20093;-74
2020/12/04 00:21:03;;;;;;;4.95;3.28;;;7.10;90.90;;;;;;5018756;28;20134;-75
2020/12/04 00:23:28;;;;;;;5.05;2.83;;;7.10;90.90;;;;;;4979720;28;20246;-75
2020/12/04 00:25:54;;;;;;;4.70;2.60;;;7.10;90.80;;;;;;4988165;28;20061;-75
2020/12/04 00:28:20;;;;;;;4.90;2.65;;;7.10;90.90;;;;;;5058770;28;20043;-76
2020/12/04 00:30:46;;;;;;;4.00;2.78;;;7.10;90.90;;;;;;5044086;28;20035;-78
2020/12/04 00:33:11;;;;;;;5.50;2.70;;;7.20;90.90;;;;;;4982931;28;20108;-76
2020/12/04 00:35:37;;;;;;;4.53;2.67;;;7.10;90.90;;;;;;5049998;28;20038;-75
2020/12/04 00:38:03;;;;;;;5.22;2.90;;;7.20;90.90;;;;;;5034189;28;20050;-82
2020/12/04 00:40:28;;;;;;;4.35;2.58;;;7.20;90.90;;;;;;4986909;28;20049;-74
2020/12/04 00:42:54;;;;;;;4.55;2.50;;;7.10;90.80;;;;;;4987379;28;20388;-76
2020/12/04 00:45:20;;;;;;;4.15;2.53;;;7.10;91.00;;;;;;5021949;28;20228;-74
2020/12/04 00:47:46;;;;;;;5.43;3.08;;;7.20;90.80;;;;;;5052766;28;20039;-74
2020/12/04 00:50:12;;;;;;;5.30;2.72;;;7.10;90.90;;;;;;5003508;28;20027;-76
2020/12/04 00:52:37;;;;;;;4.85;2.60;;;7.20;90.80;;;;;;4997009;28;20080;-74
2020/12/04 00:55:03;;;;;;;4.43;2.60;;;7.20;90.70;;;;;;4969290;28;20035;-82
2020/12/04 00:57:29;;;;;;;4.07;2.60;;;7.20;90.70;;;;;;4975419;28;20039;-74
2020/12/04 00:59:54;;;;;;;4.93;2.88;;;7.20;90.60;;;;;;4991806;28;20034;-74
2020/12/04 01:02:20;;;;;;;3.53;2.10;;;7.20;90.60;;;;;;4986083;28;20078;-77
2020/12/04 01:04:46;;;;;;;4.25;2.20;;;7.20;90.70;;;;;;4973734;28;20497;-74
2020/12/04 01:07:11;;;;;;;3.92;2.40;;;7.20;90.80;;;;;;4984004;28;20034;-74
2020/12/04 01:09:37;;;;;;;3.40;2.00;;;7.20;90.50;;;;;;5008088;28;20038;-74
2020/12/04 01:12:04;;;;;;;4.05;2.10;;;7.30;90.60;;;;;;4975595;28;20031;-81
2020/12/04 01:14:31;;;;;;;3.00;1.83;;;7.20;90.80;;;;;;4998995;28;20028;-73
2020/12/04 01:16:56;;;;;;;2.65;1.70;;;7.20;90.70;;;;;;4977964;28;20039;-74
2020/12/04 01:19:22;;;;;;;3.30;1.92;;;7.30;90.80;;;;;;5025602;28;20065;-74
2020/12/04 01:21:49;;;;;;;5.00;2.42;;;7.30;90.70;;;;;;4974930;28;20065;-75
2020/12/04 01:24:15;;;;;;;4.05;2.50;;;7.30;90.80;;;;;;4991853;28;20047;-74
2020/12/04 01:26:41;;;;;;;3.45;2.00;;;7.20;91.00;;;;;;5006583;28;20031;-74
2020/12/04 01:29:08;;;;;;;4.07;2.42;;;7.20;91.20;;;;;;4986815;28;20031;-74
2020/12/04 01:31:33;;;;;;;3.60;2.10;;;7.20;91.30;;;;;;4971877;28;20057;-74
2020/12/04 01:34:00;;;;;;;3.05;2.10;;;7.30;91.20;;;;;;4999537;28;20474;-75
2020/12/04 01:36:27;;;;;;;2.78;2.00;;;7.30;91.00;;;;;;4985598;28;20030;-74
2020/12/04 01:38:53;;;;;;;4.18;2.10;;;7.30;91.00;;;;;;4981951;28;20031;-75
2020/12/04 01:41:18;;;;;;;4.38;2.38;;;7.30;90.70;;;;;;5072609;28;20321;-73
2020/12/04 01:43:44;;;;;;;3.17;2.08;;;7.40;90.40;;;;;;5023638;28;20044;-74
2020/12/04 01:46:10;;;;;;;4.25;2.35;;;7.40;90.20;;;;;;4994507;28;20027;-73
2020/12/04 01:48:36;;;;;;;3.30;2.17;;;7.50;90.30;;;;;;5042502;28;20055;-74
2020/12/04 01:51:02;;;;;;;3.78;2.40;;;7.40;90.50;;;;;;5002013;28;21296;-74
2020/12/04 01:53:28;;;;;;;5.63;2.20;;;7.50;90.70;;;;;;5043256;28;20395;-75
2020/12/04 01:55:54;;;;;;;4.32;2.45;;;7.40;91.00;;;;;;5030620;28;20044;-76
2020/12/04 01:58:20;;;;;;;4.68;2.30;;;7.40;91.20;;;;;;5045942;28;20043;-73
2020/12/04 02:00:45;;;;;;;3.33;2.05;;;7.40;91.40;;;;;;5026763;28;20030;-73
2020/12/04 02:03:12;;;;;;;3.35;2.10;;;7.40;91.50;;;;;;5077625;28;20114;-74
2020/12/04 02:05:44;;;;;;;4.40;2.28;;;7.40;91.10;;;;;;4994042;28;20042;-75
2020/12/04 02:08:38;;;;;;;3.10;1.80;;;7.40;91.10;;;;;;4999998;28;20141;-74
2020/12/04 02:11:21;;;;;;;3.60;1.80;;;7.50;90.90;;;;;;5008274;28;20030;-78
2020/12/04 02:13:48;;;;;;;1.92;1.60;;;7.50;90.80;;;;;;5027482;28;20026;-77
2020/12/04 02:16:19;;;;;;;4.15;1.98;;;7.50;90.70;;;;;;5015942;28;20046;-74
2020/12/04 02:18:45;;;;;;;2.45;1.55;;;7.60;90.30;;;;;;5047858;28;20070;-74
2020/12/04 02:21:12;;;;;;;1.80;1.40;;;7.60;90.40;;;;;;5002744;28;20049;-74
2020/12/04 02:23:39;;;;;;;3.33;1.52;;;7.60;90.40;;;;;;5044007;27;20031;-74
2020/12/04 02:26:07;;;;;;;3.45;1.70;;;7.60;90.40;;;;;;4991380;28;20046;-74
2020/12/04 02:28:34;;;;;;;3.05;1.83;;;7.60;90.30;;;;;;4999444;28;20122;-74
2020/12/04 02:31:01;;;;;;;2.85;1.70;;;7.60;90.30;;;;;;5006481;28;20034;-74
2020/12/04 02:33:27;;;;;;;2.72;1.70;;;7.60;90.30;;;;;;5005610;28;20053;-74
2020/12/04 02:35:53;;;;;;;2.70;1.35;;;7.60;90.20;;;;;;5061191;27;20019;-75
2020/12/04 02:38:19;;;;;;;4.35;1.98;;;7.60;90.20;;;;;;5035907;28;20041;-74
2020/12/04 02:40:45;;;;;;;2.55;1.80;;;7.60;90.20;;;;;;5042804;27;20135;-76
2020/12/04 02:43:11;;;;;;;3.80;1.90;;;7.60;90.20;;;;;;5039031;28;20147;-74
2020/12/04 02:45:36;;;;;;;2.97;1.67;;;7.60;90.40;;;;;;5025171;28;20110;-74
2020/12/04 02:48:02;;;;;;;5.43;1.85;;;7.60;90.70;;;;;;5031169;28;20164;-75
2020/12/04 02:50:28;;;;;;;3.80;1.85;;;7.60;90.80;;;;;;4998365;27;20113;-74
2020/12/04 02:52:54;;;;;;;5.93;2.10;;;7.60;91.00;;;;;;5020556;28;20197;-76
2020/12/04 02:55:19;;;;;;;4.38;2.10;;;7.60;91.10;;;;;;5010231;28;20085;-73
2020/12/04 02:57:45;;;;;;;2.75;1.92;;;7.60;91.20;;;;;;5013224;28;20037;-74
2020/12/04 03:00:12;;;;;;;3.45;1.98;;;7.60;91.20;;;;;;5054768;28;20028;-74
2020/12/04 03:02:37;;;;;;;3.38;1.98;;;7.60;91.00;;;;;;5043290;28;20093;-73
2020/12/04 03:05:04;;;;;;;3.67;1.98;;;7.60;91.00;;;;;;5013985;28;20057;-80
2020/12/04 03:07:29;;;;;;;4.93;2.20;;;7.60;91.30;;;;;;5000202;28;20465;-75
2020/12/04 03:09:55;;;;;;;4.50;1.90;;;7.60;91.50;;;;;;5017738;28;20104;-75
2020/12/04 03:12:20;;;;;;;4.35;2.25;;;7.50;91.50;;;;;;5008644;28;20046;-79
2020/12/04 03:14:46;;;;;;;3.80;1.75;;;7.40;91.40;;;;;;5010314;28;20081;-73
2020/12/04 03:17:12;;;;;;;3.13;1.40;;;7.50;90.70;;;;;;4988177;28;20476;-73
2020/12/04 03:19:38;;;;;;;3.35;1.30;;;7.50;90.30;;;;;;4994422;28;20150;-75
2020/12/04 03:22:04;;;;;;;1.90;1.25;;;7.50;89.90;;;;;;4995484;28;20110;-75
2020/12/04 03:24:33;;;;;;;6.90;1.30;;;7.50;88.90;;;;;;5055306;28;20428;-75
2020/12/04 03:26:59;;;;;;;5.22;1.27;;;7.50;88.00;;;;;;4978027;28;20038;-73
2020/12/04 03:29:25;;;;;;;2.05;1.25;;;7.50;88.10;;;;;;4989783;28;20068;-74
2020/12/04 03:31:51;;;;;;;5.15;1.50;;;7.40;88.00;;;;;;4974845;28;20034;-74
2020/12/04 03:34:16;;;;;;;5.10;1.52;;;7.40;87.60;;;;;;4996715;28;20040;-73
2020/12/04 03:36:42;;;;;;;4.32;1.40;;;7.40;87.00;;;;;;4980840;28;20121;-73
2020/12/04 03:39:08;;;;;;;4.03;1.60;;;7.40;87.20;;;;;;4979517;28;20067;-74
2020/12/04 03:41:33;;;;;;;4.57;1.40;;;7.30;86.80;;;;;;4975071;28;20135;-74
2020/12/04 03:43:59;;;;;;;5.13;1.27;;;7.40;86.00;;;;;;4978526;28;20054;-75
2020/12/04 03:46:25;;;;;;;1.40;1.00;;;7.40;86.10;;;;;;5001760;28;20031;-75
2020/12/04 03:48:50;;;;;;;2.13;1.10;;;7.30;86.00;;;;;;4983303;28;20389;-74
2020/12/04 03:51:16;;;;;;;6.53;1.75;;;7.20;86.10;;;;;;5008791;28;20035;-77
2020/12/04 03:53:42;;;;;;;6.85;1.60;;;7.20;86.40;;;;;;4983998;28;20072;-76
2020/12/04 03:56:07;;;;;;;5.95;1.67;;;7.20;85.90;;;;;;4971730;28;20124;-75
2020/12/04 03:58:33;;;;;;;3.72;1.38;;;7.20;84.90;;;;;;4994290;28;20030;-74
2020/12/04 04:00:59;;;;;;;3.25;1.25;;;7.20;85.10;;;;;;4988290;28;20052;-74
2020/12/04 04:03:24;;;;;;;2.92;1.20;;;7.40;83.90;;;;;;4988494;28;20384;-75
2020/12/04 04:05:50;;;;;;;1.58;1.00;;;7.40;84.10;;;;;;4981784;28;20058;-74
2020/12/04 04:08:16;;;;;;;3.47;1.40;;;7.30;83.60;;;;;;4969736;28;20398;-74
2020/12/04 04:10:41;;;;;;;3.78;1.50;;;7.40;83.70;;;;;;4984666;28;20031;-74
2020/12/04 04:13:07;;;;;;;5.78;1.35;;;7.30;83.50;;;;;;4982714;28;20098;-73
2020/12/04 04:15:33;;;;;;;4.18;1.33;;;7.40;83.90;;;;;;4978052;28;20458;-74
2020/12/04 04:17:59;;;;;;;3.22;1.30;;;7.40;84.00;;;;;;4983410;28;20054;-76
2020/12/04 04:20:28;;;;;;;5.53;1.92;;;7.30;84.70;;;;;;4983147;28;20432;-73
2020/12/04 04:22:54;;;;;;;2.05;1.20;;;7.20;85.90;;;;;;4988385;28;20065;-73
2020/12/04 04:25:20;;;;;;;2.97;1.33;;;7.00;86.60;;;;;;4971171;28;20416;-73
2020/12/04 04:27:46;;;;;;;2.22;0.90;;;6.90;86.80;;;;;;4981546;28;20062;-73
2020/12/04 04:30:11;;;;;;;3.42;1.27;;;6.80;86.00;;;;;;4983892;28;20111;-74
2020/12/04 04:32:37;;;;;;;1.13;1.00;;;6.80;85.90;;;;;;4981352;28;20320;-73
2020/12/04 04:35:04;;;;;;;3.67;1.75;;;6.70;85.90;;;;;;4982530;28;20030;-77
2020/12/04 04:37:30;;;;;;;2.63;1.00;;;6.80;85.70;;;;;;4998795;28;20026;-73
2020/12/04 04:39:56;;;;;;;2.58;0.95;;;6.80;85.10;;;;;;5000511;28;20371;-72
2020/12/04 04:42:21;;;;;;;3.50;1.00;;;6.80;85.00;;;;;;4972047;28;20173;-73
2020/12/04 04:44:47;;;;;;;1.08;0.80;;;6.90;84.30;;;;;;4986811;28;20495;-74
2020/12/04 04:47:17;;;;;;;0.80;0.80;;;6.80;84.60;;;;;;4979688;28;20229;-73
2020/12/04 04:49:51;;;;;;;2.20;0.90;;;6.80;83.70;;;;;;4993747;28;20035;-73
2020/12/04 04:52:17;;;;;;;2.15;1.00;;;6.70;83.50;;;;;;5096222;28;20118;-74
2020/12/04 04:54:45;;;;;;;1.20;1.00;;;6.70;83.50;;;;;;5035275;27;20034;-75
2020/12/04 04:57:13;;;;;;;1.48;0.90;;;6.70;83.60;;;;;;5058167;28;20043;-73
2020/12/04 04:59:39;;;;;;;1.00;0.90;;;6.70;83.60;;;;;;5038320;28;20050;-73
2020/12/04 05:02:10;;;;;;;1.25;1.08;;;6.70;83.40;;;;;;5050723;28;20359;-73
2020/12/04 05:04:52;;;;;;;1.13;0.80;;;6.70;83.10;;;;;;5051644;28;20422;-72
2020/12/04 05:07:34;;;;;;;0.98;0.90;;;6.60;83.20;;;;;;4997629;27;20489;-75
2020/12/04 05:10:14;;;;;;;1.20;1.10;;;6.60;83.60;;;;;;5005608;28;20553;-74
2020/12/04 05:12:41;;;;;;;0.80;0.80;;;6.60;83.30;;;;;;5002083;28;20125;-73
2020/12/04 05:15:27;;;;;;;0.90;0.90;;;6.60;82.90;;;;;;5010930;28;20070;-72
2020/12/04 05:18:20;;;;;;;1.25;0.93;;;6.50;83.30;;;;;;5029629;28;20038;-73
2020/12/04 05:20:51;;;;;;;1.10;0.90;;;6.40;83.50;;;;;;4982830;28;20092;-73
2020/12/04 05:23:17;;;;;;;1.98;1.10;;;6.40;84.00;;;;;;4988168;28;20042;-72
2020/12/04 05:25:51;;;;;;;1.20;1.10;;;6.40;83.40;;;;;;4982360;28;20497;-73
2020/12/04 05:28:22;;;;;;;1.75;1.20;;;6.40;83.60;;;;;;4985978;28;20114;-73
2020/12/04 05:30:51;;;;;;;1.73;1.20;;;6.30;83.90;;;;;;4982929;28;20605;-76
2020/12/04 05:33:17;;;;;;;1.20;1.10;;;6.30;83.80;;;;;;4993201;28;20072;-74
2020/12/04 05:35:50;;;;;;;2.30;1.20;;;6.30;83.80;;;;;;5000569;28;20239;-76
2020/12/04 05:38:17;;;;;;;2.47;1.40;;;6.30;84.00;;;;;;4997105;28;20125;-74
2020/12/04 05:40:50;;;;;;;1.55;1.30;;;6.20;83.60;;;;;;4972468;28;20038;-75
2020/12/04 05:43:29;;;;;;;1.95;1.50;;;6.20;83.30;;;;;;4982372;28;20106;-74
2020/12/04 05:46:25;;;;;;;3.58;1.40;;;6.20;83.40;;;;;;4991090;28;20034;-74
2020/12/04 05:49:02;;;;;;;1.00;1.00;;;6.20;83.70;;;;;;4979921;28;20039;-74
2020/12/04 05:51:29;;;;;;;2.15;1.23;;;6.10;83.40;;;;;;5042564;28;20031;-75
2020/12/04 05:53:55;;;;;;;2.08;1.20;;;6.20;83.40;;;;;;5018006;28;20046;-76
2020/12/04 05:56:21;;;;;;;1.70;1.13;;;6.10;83.30;;;;;;5014720;28;20167;-76
2020/12/04 05:58:48;;;;;;;1.20;1.10;;;6.10;82.90;;;;;;4974815;28;20138;-77
2020/12/04 06:01:17;;;;;;;1.30;1.20;;;6.10;83.00;;;;;;4990007;28;20091;-75
2020/12/04 06:03:43;;;;;;;1.52;1.30;;;6.00;82.50;;;;;;5021714;28;20039;-74
2020/12/04 06:06:13;;;;;;;1.15;1.05;;;5.90;83.00;;;;;;5017851;28;20029;-76
2020/12/04 06:08:40;;;;;;;2.33;1.17;;;6.00;83.00;;;;;;5023041;28;20033;-75
2020/12/04 06:11:07;;;;;;;1.30;1.20;;;6.00;83.30;;;;;;5000930;28;20043;-74
2020/12/04 06:13:36;;;;;;;1.90;1.30;;;5.90;83.30;;;;;;5053227;28;20485;-74
2020/12/04 06:16:12;;;;;;;1.63;1.17;;;5.90;83.50;;;;;;4984197;28;20567;-74
2020/12/04 06:18:39;;;;;;;1.55;1.10;;;5.90;83.50;;;;;;5017594;28;20108;-75
2020/12/04 06:21:06;;;;;;;1.48;1.27;;;5.80;83.50;;;;;;5016770;28;20158;-74
2020/12/04 06:23:32;;;;;;;1.45;1.35;;;5.80;83.60;;;;;;5036677;28;20086;-75
2020/12/04 06:26:10;;;;;;;1.20;1.10;;;5.80;83.90;;;;;;4995498;28;20029;-77
2020/12/04 06:28:40;;;;;;;1.48;1.23;;;5.80;83.70;;;;;;4989088;28;20032;-73
2020/12/04 06:31:13;;;;;;;1.77;1.20;;;5.80;83.90;;;;;;4989497;28;20043;-77
2020/12/04 06:33:48;;;;;;;1.65;1.30;;;5.70;83.90;;;;;;4984489;28;20388;-74
2020/12/04 06:36:35;;;;;;;1.65;1.30;;;5.70;84.00;;;;;;4972625;28;20039;-73
2020/12/04 06:39:02;;;;;;;1.42;1.25;;;5.70;84.00;;;;;;4981341;28;20058;-74
2020/12/04 06:41:44;;;;;;;1.33;1.20;;;5.70;84.10;;;;;;4981193;28;20213;-75
2020/12/04 06:44:21;;;;;;;4.00;1.48;;;5.70;84.00;;;;;;4987997;28;20055;-74
2020/12/04 06:46:53;;;;;;;2.20;1.33;;;5.70;84.20;;;;;;4970712;28;20042;-75
2020/12/04 06:52:14;;;;;;;2.50;1.40;;;5.80;84.10;;;;;;4988075;28;20383;-75
2020/12/04 06:54:51;;;;;;;1.45;1.33;;;5.90;84.10;;;;;;4974401;28;20126;-78
2020/12/04 06:57:18;;;;;;;2.22;1.50;;;5.90;84.00;;;;;;4982414;28;20070;-74
2020/12/04 06:59:44;;;;;;;3.80;1.30;;;5.90;83.90;;;;;;4985377;28;20039;-76
2020/12/04 07:02:18;;;;;;;2.15;1.40;;;6.00;83.80;;;;;;5004316;28;20043;-74
2020/12/04 07:04:48;;;;;;;2.50;1.40;;;6.10;83.50;;;;;;4987558;28;20450;-74
2020/12/04 07:07:16;;;;;;;5.68;1.45;;;6.10;83.60;;;;;;4978837;28;20030;-74
2020/12/04 07:09:52;;;;;;;4.00;1.73;;;6.10;83.50;;;;;;4984069;28;20031;-75
2020/12/04 07:12:20;;;;;;;1.45;1.35;;;6.10;83.70;;;;;;4992022;28;20030;-74
2020/12/04 07:14:52;;;;;;;2.30;1.50;;;6.20;83.50;;;;;;4997648;28;20031;-76
2020/12/04 07:17:22;;;;;;;4.57;1.67;;;6.20;83.40;;;;;;4985427;28;20062;-74
2020/12/04 07:19:50;;;;;;;3.42;1.50;;;6.20;83.20;;;;;;5001797;28;20136;-75
2020/12/04 07:22:16;;;;;;;5.75;1.70;;;6.20;83.40;;;;;;4990451;28;20043;-74
2020/12/04 07:24:46;;;;;;;3.13;1.88;;;6.20;83.30;;;;;;4984803;28;20370;-75
2020/12/04 07:27:18;;;;;;;2.75;1.60;;;6.30;83.10;;;;;;4989642;28;20030;-74
2020/12/04 07:29:45;;;;;;;2.55;1.60;;;6.30;83.00;;;;;;4989628;28;20057;-74
2020/12/04 07:32:11;;;;;;;4.20;1.70;;;6.30;82.80;;;;;;5000042;28;20042;-73
2020/12/04 07:34:38;;;;;;;5.05;1.75;;;6.40;82.80;;;;;;4987032;28;20117;-75
2020/12/04 07:37:05;;;;;;;4.60;2.10;;;6.30;83.10;;;;;;4983732;28;20031;-82
2020/12/04 07:39:33;;;;;;;2.80;1.50;;;6.40;83.00;;;;;;4991052;28;20426;-73
2020/12/04 07:42:01;;;;;;;3.33;1.70;;;6.40;82.80;;;;;;4981184;28;20037;-73
2020/12/04 07:44:41;;;;;;;3.35;1.63;;;6.40;82.60;;;;;;4994565;28;20065;-74
2020/12/04 07:47:11;;;;;;;2.60;1.55;;;6.40;82.70;;;;;;4982199;28;20460;-74
2020/12/04 07:49:45;;;;;;;3.78;1.70;;;6.40;82.80;;;;;;4979488;28;20046;-74
2020/12/04 07:52:13;;;;;;;5.82;1.83;;;6.40;82.80;;;;;;4975954;28;20088;-73
2020/12/04 07:54:40;;;;;;;3.65;1.60;;;6.40;82.70;;;;;;4972924;28;20371;-74
2020/12/04 07:57:06;;;;;;;4.95;1.80;;;6.40;82.70;;;;;;4975480;28;20034;-74
2020/12/04 07:59:34;;;;;;;4.63;1.75;;;6.40;82.30;;;;;;4972704;28;20084;-74
2020/12/04 08:02:02;;;;;;;3.85;1.80;;;6.40;82.00;;;;;;4972846;28;20034;-73
2020/12/04 08:04:28;;;;;;;4.07;1.60;;;6.40;81.80;;;;;;4979268;28;20058;-79
2020/12/04 08:07:20;;;;;;;3.50;1.65;;;6.40;81.90;;;;;;4977976;28;20038;-75
2020/12/04 08:09:47;;;;;;;2.88;1.45;;;6.40;81.70;;;;;;4997628;27;20033;-74
2020/12/04 08:12:25;;;;;;;4.00;2.03;;;6.40;81.50;;;;;;5014964;28;20038;-73
2020/12/04 08:14:56;;;;;;;2.58;1.60;;;6.40;81.60;;;;;;5013449;28;20125;-73
2020/12/04 08:17:24;;;;;;;2.55;1.58;;;6.40;81.50;;;;;;5045007;28;20042;-73
2020/12/04 08:19:50;;;;;;;3.25;1.63;;;6.40;81.60;;;;;;5079993;28;20538;-74
2020/12/04 08:22:16;;;;;;;1.98;1.50;;;6.40;81.30;;;;;;5059807;28;20366;-71
2020/12/04 08:25:03;;;;;;;2.80;1.63;;;6.40;81.10;;;;;;5027457;28;20065;-70
2020/12/04 08:27:29;;;;;;;2.78;1.60;;;6.40;81.00;;;;;;5006188;28;20473;-70
2020/12/04 08:30:17;;;;;;;3.05;1.35;;;6.40;81.20;;;;;;5036134;28;20059;-71
2020/12/04 08:33:03;;;;;;;2.72;1.55;;;6.40;81.10;;;;;;5100101;27;20122;-71
2020/12/04 08:35:39;;;;;;;2.60;1.30;;;6.40;80.80;;;;;;4986839;28;20626;-70
2020/12/04 08:38:15;;;;;;;3.90;1.55;;;6.30;81.40;;;;;;5018521;28;20036;-77
2020/12/04 08:40:45;;;;;;;2.47;1.50;;;6.40;81.60;;;;;;5019274;28;20496;-71
2020/12/04 08:43:13;;;;;;;4.32;1.80;;;6.40;81.30;;;;;;4987556;28;20224;-69
2020/12/04 08:45:41;;;;;;;2.03;1.60;;;6.40;81.00;;;;;;4998337;28;20044;-71
2020/12/04 08:48:12;;;;;;;2.30;1.42;;;6.40;81.40;;;;;;5034784;28;20061;-70
2020/12/04 08:50:42;;;;;;;2.83;1.90;;;6.40;81.00;;;;;;5011809;28;20030;-70
2020/12/04 08:53:09;;;;;;;2.83;1.60;;;6.30;81.30;;;;;;5011843;28;20090;-71
2020/12/04 08:55:35;;;;;;;4.05;1.45;;;6.30;81.40;;;;;;5003639;28;20442;-72
2020/12/04 08:58:00;;;;;;;2.90;1.38;;;6.40;81.30;;;;;;4994094;28;20035;-70
2020/12/04 09:00:28;;;;;;;3.42;1.50;;;6.40;81.30;;;;;;5041986;28;20114;-70
2020/12/04 09:02:54;;;;;;;3.03;1.77;;;6.40;81.00;;;;;;5040611;28;20043;-69
2020/12/04 09:05:21;;;;;;;2.15;1.50;;;6.40;81.20;;;;;;5019258;28;20035;-72
2020/12/04 09:07:46;;;;;;;6.25;1.55;;;6.50;81.30;;;;;;5017238;28;20095;-70
2020/12/04 09:10:17;;;;;;;3.13;1.58;;;6.50;81.40;;;;;;5063789;28;20458;-69
2020/12/04 09:12:44;;;;;;;1.52;1.30;;;6.50;81.40;;;;;;5008439;28;20412;-69
2020/12/04 09:15:12;;;;;;;3.33;1.65;;;6.50;81.10;;;;;;4983731;28;20041;-70
2020/12/04 09:17:38;;;;;;;2.50;1.58;;;6.50;80.70;;;;;;4982916;28;20042;-71
2020/12/04 09:20:06;;;;;;;3.40;1.77;;;6.50;81.10;;;;;;5003378;28;20034;-70
2020/12/04 09:22:32;;;;;;;2.65;1.70;;;6.50;80.80;;;;;;4995955;28;20112;-70
2020/12/04 09:25:00;;;;;;;1.75;1.30;;;6.50;80.50;;;;;;4987612;28;20031;-69
2020/12/04 09:27:27;;;;;;;2.13;1.35;;;6.50;80.40;;;;;;5014014;28;20078;-69
2020/12/04 09:29:53;;;;;;;2.67;1.40;;;6.50;80.80;;;;;;4978506;28;20114;-70
2020/12/04 09:32:18;;;;;;;2.13;1.30;;;6.40;80.60;;;;;;4979856;28;20118;-69
2020/12/04 09:34:46;;;;;;;2.35;1.48;;;6.40;81.20;;;;;;4995958;28;20036;-71
2020/12/04 09:37:36;;;;;;;2.63;1.40;;;6.40;80.90;;;;;;4984913;28;20034;-69
2020/12/04 09:40:11;;;;;;;2.08;1.48;;;6.40;80.80;;;;;;4993219;28;20058;-70
2020/12/04 09:42:37;;;;;;;2.95;1.80;;;6.40;80.70;;;;;;4982902;28;20042;-73
2020/12/04 09:45:06;;;;;;;3.03;1.40;;;6.40;80.80;;;;;;4983546;28;20669;-71
2020/12/04 09:47:34;;;;;;;2.72;1.73;;;6.40;80.70;;;;;;4984279;28;20046;-73
2020/12/04 09:50:00;;;;;;;2.58;1.63;;;6.50;80.50;;;;;;5010994;28;20028;-70
2020/12/04 09:52:26;;;;;;;2.60;1.67;;;6.50;80.10;;;;;;4986125;28;20050;-69
2020/12/04 09:54:52;;;;;;;4.55;1.70;;;6.60;80.30;;;;;;4982503;28;20367;-73
2020/12/04 09:57:18;;;;;;;2.35;1.40;;;6.50;80.40;;;;;;4997860;28;20124;-69
2020/12/04 09:59:45;;;;;;;2.88;1.60;;;6.50;80.50;;;;;;4997352;28;20035;-70
2020/12/04 10:02:11;;;;;;;2.20;1.35;;;6.60;80.60;;;;;;5017719;28;20547;-70
2020/12/04 10:04:40;;;;;;;2.53;1.48;;;6.50;80.00;;;;;;4968158;28;20045;-69
2020/12/04 10:07:07;;;;;;;4.63;1.48;;;6.50;80.00;;;;;;5003991;28;20412;-71
2020/12/04 10:09:33;;;;;;;2.22;1.27;;;6.50;79.80;;;;;;4980472;28;20035;-70
2020/12/04 10:11:59;;;;;;;3.25;1.48;;;6.50;79.70;;;;;;4991465;28;20080;-70
2020/12/04 10:14:25;;;;;;;2.50;1.15;;;6.60;79.60;;;;;;4989147;28;21802;-69
2020/12/04 10:16:52;;;;;;;3.35;1.50;;;6.60;79.20;;;;;;5008357;28;20430;-69
2020/12/04 10:19:19;;;;;;;2.67;1.20;;;6.60;79.00;;;;;;4974928;28;20470;-70
2020/12/04 10:21:46;;;;;;;1.52;1.15;;;6.60;79.00;;;;;;4977182;28;20034;-70
2020/12/04 10:24:14;;;;;;;2.65;1.38;;;6.70;78.70;;;;;;4993093;28;20366;-70
2020/12/04 10:26:50;;;;;;;4.10;1.65;;;6.70;78.80;;;;;;4976149;28;20041;-70
2020/12/04 10:29:17;;;;;;;1.67;1.30;;;6.70;78.60;;;;;;4992771;28;20062;-70
2020/12/04 10:31:43;;;;;;;2.42;1.45;;;6.70;78.40;;;;;;5012925;28;20482;-70
2020/12/04 10:34:10;;;;;;;2.25;1.40;;;6.70;77.90;;;;;;4985331;28;20031;-70
2020/12/04 10:36:37;;;;;;;2.92;1.50;;;6.70;78.00;;;;;;4997892;28;20036;-70
2020/12/04 10:39:04;;;;;;;2.60;1.25;;;6.80;78.10;;;;;;4986194;28;20406;-71
2020/12/04 10:41:34;;;;;;;2.63;1.10;;;6.80;77.60;;;;;;4999934;28;20047;-70
2020/12/04 10:44:01;;;;;;;2.88;1.10;;;6.80;78.10;;;;;;5015106;28;20127;-70
2020/12/04 10:46:27;;;;;;;2.58;1.45;;;6.90;77.80;;;;;;4975931;28;20042;-70
2020/12/04 10:48:53;;;;;;;2.28;1.00;;;6.80;77.50;;;;;;4986641;28;20085;-69
2020/12/04 10:51:23;;;;;;;2.95;1.30;;;7.00;77.50;;;;;;4977173;28;20546;-69
2020/12/04 10:53:49;;;;;;;1.58;1.20;;;6.90;77.50;;;;;;4982661;28;20549;-71
2020/12/04 10:56:22;;;;;;;4.00;1.65;;;6.90;77.40;;;;;;4985116;28;20118;-69
2020/12/04 10:58:51;;;;;;;1.75;1.15;;;7.00;77.10;;;;;;4985840;28;20042;-69
2020/12/04 11:01:32;;;;;;;1.23;1.05;;;7.00;76.90;;;;;;4983453;28;20037;-70
2020/12/04 11:06:42;;;;;;;4.10;1.50;;;7.10;76.40;;;;;;5001389;28;20050;-70
2020/12/04 11:09:08;;;;;;;3.40;1.30;;;7.00;76.30;;;;;;5007584;28;20270;-70
2020/12/04 11:11:34;;;;;;;3.83;1.35;;;7.00;76.20;;;;;;4981364;28;20045;-70
2020/12/04 11:14:00;;;;;;;2.58;1.40;;;6.90;76.50;;;;;;4989180;28;20039;-71
2020/12/04 11:16:26;;;;;;;2.38;1.35;;;7.00;76.50;;;;;;4982725;28;20038;-69
2020/12/04 11:18:51;;;;;;;2.20;1.40;;;6.90;76.90;;;;;;4992446;28;20035;-69
2020/12/04 11:21:17;;;;;;;3.28;1.45;;;7.00;77.00;;;;;;4975939;28;20046;-69
2020/12/04 11:23:42;;;;;;;4.68;1.42;;;6.90;77.40;;;;;;4991875;28;20483;-68
2020/12/04 11:26:08;;;;;;;3.92;1.48;;;7.00;77.40;;;;;;4976880;28;20052;-71
2020/12/04 11:28:34;;;;;;;3.45;1.40;;;7.00;77.40;;;;;;4974176;28;20054;-69
2020/12/04 11:31:00;;;;;;;2.22;1.20;;;7.10;77.30;;;;;;4990418;28;20058;-68
2020/12/04 11:33:26;;;;;;;3.17;1.40;;;7.10;77.30;;;;;;4976348;28;20116;-69
2020/12/04 11:35:51;;;;;;;4.50;1.40;;;7.40;77.10;;;;;;4972129;28;20047;-71
2020/12/04 11:38:17;;;;;;;2.17;1.20;;;7.50;75.50;;;;;;4984669;28;20042;-69
2020/12/04 11:40:43;;;;;;;1.98;1.30;;;7.40;74.00;;;;;;4985408;28;20047;-72
2020/12/04 11:43:08;;;;;;;2.40;1.17;;;7.40;73.90;;;;;;4984632;28;20134;-69
2020/12/04 11:45:34;;;;;;;2.42;1.40;;;7.20;74.40;;;;;;4979151;28;20076;-69
2020/12/04 11:48:00;;;;;;;2.25;1.13;;;7.10;73.50;;;;;;4981293;28;20371;-69
2020/12/04 11:50:25;;;;;;;4.85;1.95;;;7.10;73.50;;;;;;4983389;28;20335;-72
2020/12/04 11:52:51;;;;;;;4.97;1.50;;;7.10;73.50;;;;;;4979868;28;20045;-68
2020/12/04 11:55:17;;;;;;;3.70;1.35;;;7.10;73.90;;;;;;4976631;28;20078;-70
2020/12/04 11:57:42;;;;;;;2.95;1.23;;;7.10;73.20;;;;;;5003950;28;20034;-67
2020/12/04 12:00:11;;;;;;;4.68;1.80;;;7.10;74.10;;;;;;5000602;28;20034;-70
2020/12/04 12:02:37;;;;;;;2.95;1.55;;;7.20;74.40;;;;;;4973257;28;20074;-69
2020/12/04 12:05:04;;;;;;;4.28;1.67;;;7.10;74.90;;;;;;4979760;28;20389;-69
2020/12/04 12:07:29;;;;;;;4.60;1.90;;;7.10;75.20;;;;;;4971001;28;20039;-68
2020/12/04 12:09:55;;;;;;;4.18;1.63;;;7.10;75.60;;;;;;4983368;28;20113;-68
2020/12/04 12:12:21;;;;;;;3.88;1.50;;;7.10;75.50;;;;;;4982055;28;20027;-68
2020/12/04 12:14:47;;;;;;;4.60;1.60;;;7.20;75.40;;;;;;4981159;28;20044;-68
2020/12/04 12:17:14;;;;;;;3.45;1.70;;;7.10;74.90;;;;;;4969993;28;20130;-69
2020/12/04 12:19:40;;;;;;;2.22;1.38;;;7.20;75.00;;;;;;5010473;28;20056;-69
2020/12/04 12:22:10;;;;;;;3.03;1.27;;;7.20;74.30;;;;;;4990734;28;20054;-68
2020/12/04 12:24:37;;;;;;;3.83;1.58;;;7.10;74.70;;;;;;4989471;28;20072;-68
2020/12/04 12:27:07;;;;;;;5.32;1.70;;;7.10;74.10;;;;;;4977460;28;20141;-69
2020/12/04 12:29:33;;;;;;;4.78;1.70;;;7.00;74.10;;;;;;4982030;28;20045;-68
2020/12/04 12:31:59;;;;;;;3.80;1.42;;;6.90;74.20;;;;;;4983070;28;20035;-69
2020/12/04 12:34:59;;;;;;;4.90;1.33;;;6.90;73.70;;;;;;4975819;28;20070;-71
2020/12/04 12:37:11;;;;;;;2.50;1.17;;;6.90;73.70;;;;;;4977053;28;20038;-69
2020/12/04 12:39:38;;;;;;;2.60;1.42;;;7.00;72.80;;;;;;4971436;28;20132;-69
2020/12/04 12:42:08;;;;;;;5.13;2.17;;;7.00;72.90;;;;;;4977055;28;20042;-68
2020/12/04 12:44:35;;;;;;;5.35;1.98;;;7.10;73.00;;;;;;4984156;28;20054;-72
2020/12/04 12:47:01;;;;;;;2.08;1.23;;;7.30;72.60;;;;;;4983782;28;20050;-68
2020/12/04 12:49:27;;;;;;;1.92;1.30;;;7.40;71.50;;;;;;5010332;28;20039;-69
2020/12/04 12:51:52;;;;;;;2.80;1.30;;;7.30;71.30;;;;;;4986051;28;20050;-68
2020/12/04 12:54:18;;;;;;;2.28;1.15;;;7.10;72.10;;;;;;4971637;28;20144;-68
2020/12/04 12:56:47;;;;;;;2.30;1.45;;;7.10;72.60;;;;;;4989380;28;20379;-68
2020/12/04 12:59:12;;;;;;;3.75;1.33;;;7.00;72.90;;;;;;4985992;28;20103;-70
2020/12/04 13:01:38;;;;;;;3.40;1.63;;;6.90;73.20;;;;;;5000001;28;20044;-69
2020/12/04 13:04:04;;;;;;;2.75;1.50;;;6.80;73.50;;;;;;4993800;28;20116;-69
2020/12/04 13:06:29;;;;;;;5.07;1.60;;;6.80;73.60;;;;;;4976031;28;20502;-69
2020/12/04 13:08:55;;;;;;;3.75;1.42;;;6.80;73.80;;;;;;4976234;28;20356;-68